sensor_id;sensor_type;location;lat;lon;timestamp;pressure;altitude;pressure_sealevel;temperature;humidity
59531;BME280;45349;48.692;8.186;2023-06-14T00:00:59;98116.88;;;16.50;39.13
59531;BME280;45349;48.692;8.186;2023-06-14T00:03:29;98128.44;;;16.42;39.45
59531;BME280;45349;48.692;8.186;2023-06-14T00:05:57;98120.91;;;16.32;39.50
59531;BME280;45349;48.692;8.186;2023-06-14T00:08:23;98124.97;;;16.21;40.15
59531;BME280;45349;48.692;8.186;2023-06-14T00:10:50;98126.53;;;16.16;39.76
59531;BME280;45349;48.692;8.186;2023-06-14T00:13:17;98117.41;;;16.12;40.11
59531;BME280;45349;48.692;8.186;2023-06-14T00:15:44;98121.03;;;15.97;41.68
59531;BME280;45349;48.692;8.186;2023-06-14T00:18:11;98119.38;;;15.83;42.03
59531;BME280;45349;48.692;8.186;2023-06-14T00:20:39;98119.31;;;15.69;42.83
59531;BME280;45349;48.692;8.186;2023-06-14T00:23:08;98110.13;;;15.58;42.76
59531;BME280;45349;48.692;8.186;2023-06-14T00:25:34;98107.91;;;15.55;42.02
59531;BME280;45349;48.692;8.186;2023-06-14T00:28:01;98106.44;;;15.46;43.73
59531;BME280;45349;48.692;8.186;2023-06-14T00:30:27;98111.84;;;15.38;43.74
59531;BME280;45349;48.692;8.186;2023-06-14T00:32:56;98101.72;;;15.28;43.46
59531;BME280;45349;48.692;8.186;2023-06-14T00:35:24;98109.75;;;15.19;43.52
59531;BME280;45349;48.692;8.186;2023-06-14T00:37:53;98108.47;;;15.09;44.90
59531;BME280;45349;48.692;8.186;2023-06-14T00:40:20;98101.53;;;15.01;45.52
59531;BME280;45349;48.692;8.186;2023-06-14T00:42:47;98107.72;;;14.86;45.03
59531;BME280;45349;48.692;8.186;2023-06-14T00:45:13;98107.00;;;14.71;45.99
59531;BME280;45349;48.692;8.186;2023-06-14T00:47:41;98105.25;;;14.56;46.26
59531;BME280;45349;48.692;8.186;2023-06-14T00:50:09;98109.44;;;14.51;47.60
59531;BME280;45349;48.692;8.186;2023-06-14T00:52:36;98110.31;;;14.36;46.60
59531;BME280;45349;48.692;8.186;2023-06-14T00:55:05;98112.69;;;14.31;46.60
59531;BME280;45349;48.692;8.186;2023-06-14T00:57:32;98106.63;;;14.30;46.71
59531;BME280;45349;48.692;8.186;2023-06-14T01:00:03;98106.13;;;14.20;47.41
59531;BME280;45349;48.692;8.186;2023-06-14T01:02:34;98100.25;;;14.18;47.33
59531;BME280;45349;48.692;8.186;2023-06-14T01:05:02;98105.69;;;14.16;47.09
59531;BME280;45349;48.692;8.186;2023-06-14T01:07:36;98102.13;;;14.24;48.35
59531;BME280;45349;48.692;8.186;2023-06-14T01:10:19;98100.88;;;14.20;47.41
59531;BME280;45349;48.692;8.186;2023-06-14T01:12:52;98104.00;;;14.09;47.14
59531;BME280;45349;48.692;8.186;2023-06-14T01:15:22;98106.06;;;14.13;48.44
59531;BME280;45349;48.692;8.186;2023-06-14T01:17:50;98108.34;;;14.01;48.56
59531;BME280;45349;48.692;8.186;2023-06-14T01:20:19;98107.72;;;13.99;47.86
59531;BME280;45349;48.692;8.186;2023-06-14T01:22:52;98104.69;;;13.96;48.29
59531;BME280;45349;48.692;8.186;2023-06-14T01:25:20;98107.19;;;14.04;48.08
59531;BME280;45349;48.692;8.186;2023-06-14T01:27:48;98111.50;;;14.12;47.78
59531;BME280;45349;48.692;8.186;2023-06-14T01:30:17;98111.31;;;14.13;47.80
59531;BME280;45349;48.692;8.186;2023-06-14T01:32:46;98101.97;;;14.26;46.42
59531;BME280;45349;48.692;8.186;2023-06-14T01:35:13;98113.75;;;14.37;45.49
59531;BME280;45349;48.692;8.186;2023-06-14T01:37:40;98105.75;;;14.45;44.71
59531;BME280;45349;48.692;8.186;2023-06-14T01:40:10;98103.94;;;14.45;47.13
59531;BME280;45349;48.692;8.186;2023-06-14T01:42:38;98109.75;;;14.41;46.25
59531;BME280;45349;48.692;8.186;2023-06-14T01:45:07;98108.00;;;14.26;48.70
59531;BME280;45349;48.692;8.186;2023-06-14T01:47:35;98110.75;;;14.18;47.92
59531;BME280;45349;48.692;8.186;2023-06-14T01:50:02;98112.13;;;14.14;48.30
59531;BME280;45349;48.692;8.186;2023-06-14T01:52:30;98112.44;;;14.04;48.01
59531;BME280;45349;48.692;8.186;2023-06-14T01:54:56;98108.81;;;14.05;47.20
59531;BME280;45349;48.692;8.186;2023-06-14T01:57:25;98110.34;;;13.99;46.72
59531;BME280;45349;48.692;8.186;2023-06-14T01:59:52;98103.47;;;13.98;47.82
59531;BME280;45349;48.692;8.186;2023-06-14T02:02:19;98107.31;;;13.96;46.57
59531;BME280;45349;48.692;8.186;2023-06-14T02:04:45;98105.09;;;13.99;46.46
59531;BME280;45349;48.692;8.186;2023-06-14T02:07:13;98108.34;;;14.01;46.76
59531;BME280;45349;48.692;8.186;2023-06-14T02:09:41;98109.25;;;14.09;45.95
59531;BME280;45349;48.692;8.186;2023-06-14T02:12:08;98108.31;;;14.16;46.00
59531;BME280;45349;48.692;8.186;2023-06-14T02:14:37;98112.84;;;14.23;45.05
59531;BME280;45349;48.692;8.186;2023-06-14T02:17:04;98104.00;;;14.30;45.17
59531;BME280;45349;48.692;8.186;2023-06-14T02:19:32;98107.88;;;14.35;45.30
59531;BME280;45349;48.692;8.186;2023-06-14T02:21:58;98112.75;;;14.38;45.04
59531;BME280;45349;48.692;8.186;2023-06-14T02:24:25;98117.19;;;14.37;45.58
59531;BME280;45349;48.692;8.186;2023-06-14T02:26:52;98112.13;;;14.36;45.10
59531;BME280;45349;48.692;8.186;2023-06-14T02:29:18;98104.06;;;14.37;44.38
59531;BME280;45349;48.692;8.186;2023-06-14T02:31:47;98110.81;;;14.46;44.78
59531;BME280;45349;48.692;8.186;2023-06-14T02:34:15;98106.69;;;14.37;45.03
59531;BME280;45349;48.692;8.186;2023-06-14T02:36:42;98102.38;;;14.29;45.25
59531;BME280;45349;48.692;8.186;2023-06-14T02:39:11;98104.00;;;14.30;44.89
59531;BME280;45349;48.692;8.186;2023-06-14T02:41:37;98116.13;;;14.31;45.72
59531;BME280;45349;48.692;8.186;2023-06-14T02:44:04;98109.00;;;14.25;46.06
59531;BME280;45349;48.692;8.186;2023-06-14T02:46:31;98110.31;;;14.14;46.74
59531;BME280;45349;48.692;8.186;2023-06-14T02:48:59;98109.31;;;14.15;46.16
59531;BME280;45349;48.692;8.186;2023-06-14T02:51:26;98111.59;;;14.03;47.41
59531;BME280;45349;48.692;8.186;2023-06-14T02:53:56;98101.06;;;13.97;48.72
59531;BME280;45349;48.692;8.186;2023-06-14T02:56:22;98110.94;;;13.80;48.42
59531;BME280;45349;48.692;8.186;2023-06-14T02:58:56;98113.69;;;13.71;49.11
59531;BME280;45349;48.692;8.186;2023-06-14T03:01:25;98118.69;;;13.66;49.76
59531;BME280;45349;48.692;8.186;2023-06-14T03:04:01;98102.31;;;13.49;49.14
59531;BME280;45349;48.692;8.186;2023-06-14T03:06:28;98113.44;;;13.51;49.86
59531;BME280;45349;48.692;8.186;2023-06-14T03:08:57;98111.00;;;13.50;50.16
59531;BME280;45349;48.692;8.186;2023-06-14T03:11:26;98114.78;;;13.47;48.41
59531;BME280;45349;48.692;8.186;2023-06-14T03:13:56;98113.22;;;13.38;49.37
59531;BME280;45349;48.692;8.186;2023-06-14T03:16:25;98119.03;;;13.33;48.62
59531;BME280;45349;48.692;8.186;2023-06-14T03:18:56;98122.72;;;13.24;48.95
59531;BME280;45349;48.692;8.186;2023-06-14T03:21:26;98120.94;;;13.24;50.09
59531;BME280;45349;48.692;8.186;2023-06-14T03:23:58;98119.66;;;13.20;50.33
59531;BME280;45349;48.692;8.186;2023-06-14T03:26:25;98133.56;;;13.21;51.66
59531;BME280;45349;48.692;8.186;2023-06-14T03:28:55;98131.31;;;13.18;50.86
59531;BME280;45349;48.692;8.186;2023-06-14T03:31:23;98135.28;;;13.13;50.93
59531;BME280;45349;48.692;8.186;2023-06-14T03:33:55;98132.75;;;13.05;51.61
59531;BME280;45349;48.692;8.186;2023-06-14T03:36:23;98136.19;;;13.06;51.78
59531;BME280;45349;48.692;8.186;2023-06-14T03:38:57;98134.00;;;12.94;52.19
59531;BME280;45349;48.692;8.186;2023-06-14T03:41:23;98144.00;;;12.91;53.75
59531;BME280;45349;48.692;8.186;2023-06-14T03:43:56;98150.59;;;12.87;53.93
59531;BME280;45349;48.692;8.186;2023-06-14T03:46:22;98142.09;;;12.84;54.08
59531;BME280;45349;48.692;8.186;2023-06-14T03:49:14;98140.66;;;12.82;53.62
59531;BME280;45349;48.692;8.186;2023-06-14T03:51:44;98160.50;;;12.76;53.71
59531;BME280;45349;48.692;8.186;2023-06-14T03:54:17;98153.38;;;12.70;53.69
59531;BME280;45349;48.692;8.186;2023-06-14T03:56:45;98155.59;;;12.73;54.38
59531;BME280;45349;48.692;8.186;2023-06-14T03:59:11;98160.25;;;12.71;54.78
59531;BME280;45349;48.692;8.186;2023-06-14T04:01:38;98162.66;;;12.73;53.79
59531;BME280;45349;48.692;8.186;2023-06-14T04:04:13;98161.03;;;12.72;53.52
59531;BME280;45349;48.692;8.186;2023-06-14T04:06:41;98166.00;;;12.66;54.47
59531;BME280;45349;48.692;8.186;2023-06-14T04:09:09;98166.00;;;12.66;56.05
59531;BME280;45349;48.692;8.186;2023-06-14T04:11:37;98164.56;;;12.64;55.12
59531;BME280;45349;48.692;8.186;2023-06-14T04:14:05;98168.16;;;12.63;55.41
59531;BME280;45349;48.692;8.186;2023-06-14T04:16:32;98171.22;;;12.66;56.32
59531;BME280;45349;48.692;8.186;2023-06-14T04:19:00;98161.22;;;12.70;57.51
59531;BME280;45349;48.692;8.186;2023-06-14T04:21:27;98170.97;;;12.76;56.06
59531;BME280;45349;48.692;8.186;2023-06-14T04:23:58;98173.25;;;12.79;55.97
59531;BME280;45349;48.692;8.186;2023-06-14T04:26:28;98177.03;;;12.77;56.51
59531;BME280;45349;48.692;8.186;2023-06-14T04:28:58;98176.69;;;12.80;55.28
59531;BME280;45349;48.692;8.186;2023-06-14T04:31:28;98182.50;;;12.90;56.62
59531;BME280;45349;48.692;8.186;2023-06-14T04:33:56;98183.22;;;12.99;57.45
59531;BME280;45349;48.692;8.186;2023-06-14T04:36:24;98182.44;;;12.98;57.21
59531;BME280;45349;48.692;8.186;2023-06-14T04:38:55;98193.19;;;13.04;56.44
59531;BME280;45349;48.692;8.186;2023-06-14T04:41:25;98189.31;;;13.14;57.21
59531;BME280;45349;48.692;8.186;2023-06-14T04:43:57;98186.69;;;13.14;56.56
59531;BME280;45349;48.692;8.186;2023-06-14T04:46:28;98198.44;;;13.19;58.35
59531;BME280;45349;48.692;8.186;2023-06-14T04:48:56;98197.31;;;13.21;57.11
59531;BME280;45349;48.692;8.186;2023-06-14T04:51:23;98198.09;;;13.22;58.11
59531;BME280;45349;48.692;8.186;2023-06-14T04:53:56;98206.41;;;13.25;58.35
59531;BME280;45349;48.692;8.186;2023-06-14T04:56:24;98203.00;;;13.25;58.72
59531;BME280;45349;48.692;8.186;2023-06-14T04:58:57;98211.13;;;13.30;58.80
59531;BME280;45349;48.692;8.186;2023-06-14T05:01:24;98213.41;;;13.33;57.70
59531;BME280;45349;48.692;8.186;2023-06-14T05:03:56;98218.09;;;13.38;58.96
59531;BME280;45349;48.692;8.186;2023-06-14T05:06:23;98216.59;;;13.43;57.23
59531;BME280;45349;48.692;8.186;2023-06-14T05:08:56;98215.97;;;13.41;58.43
59531;BME280;45349;48.692;8.186;2023-06-14T05:11:22;98217.41;;;13.44;58.00
59531;BME280;45349;48.692;8.186;2023-06-14T05:13:55;98215.88;;;13.50;56.88
59531;BME280;45349;48.692;8.186;2023-06-14T05:16:25;98216.53;;;13.52;57.87
59531;BME280;45349;48.692;8.186;2023-06-14T05:18:56;98213.19;;;13.58;57.43
59531;BME280;45349;48.692;8.186;2023-06-14T05:21:23;98210.38;;;13.60;57.38
59531;BME280;45349;48.692;8.186;2023-06-14T05:23:56;98215.88;;;13.65;57.72
59531;BME280;45349;48.692;8.186;2023-06-14T05:26:23;98210.75;;;13.71;57.58
59531;BME280;45349;48.692;8.186;2023-06-14T05:28:56;98219.88;;;13.76;57.82
59531;BME280;45349;48.692;8.186;2023-06-14T05:31:23;98220.75;;;13.83;57.79
59531;BME280;45349;48.692;8.186;2023-06-14T05:34:15;98223.91;;;13.93;55.98
59531;BME280;45349;48.692;8.186;2023-06-14T05:36:42;98229.91;;;14.02;57.06
59531;BME280;45349;48.692;8.186;2023-06-14T05:39:08;98230.50;;;14.19;57.22
59531;BME280;45349;48.692;8.186;2023-06-14T05:41:35;98229.38;;;14.65;56.33
59531;BME280;45349;48.692;8.186;2023-06-14T05:44:02;98230.44;;;15.14;55.07
59531;BME280;45349;48.692;8.186;2023-06-14T05:46:28;98238.94;;;15.45;54.00
59531;BME280;45349;48.692;8.186;2023-06-14T05:48:55;98239.13;;;15.72;53.56
59531;BME280;45349;48.692;8.186;2023-06-14T05:51:23;98243.72;;;15.91;53.66
59531;BME280;45349;48.692;8.186;2023-06-14T05:53:55;98246.03;;;16.08;54.03
59531;BME280;45349;48.692;8.186;2023-06-14T05:56:22;98244.25;;;16.22;54.10
59531;BME280;45349;48.692;8.186;2023-06-14T05:59:14;98250.81;;;16.40;53.19
59531;BME280;45349;48.692;8.186;2023-06-14T06:01:41;98250.00;;;16.52;52.83
59531;BME280;45349;48.692;8.186;2023-06-14T06:04:07;98258.16;;;16.64;51.81
59531;BME280;45349;48.692;8.186;2023-06-14T06:06:35;98258.78;;;16.73;52.11
59531;BME280;45349;48.692;8.186;2023-06-14T06:09:04;98255.34;;;16.79;50.12
59531;BME280;45349;48.692;8.186;2023-06-14T06:11:31;98266.75;;;16.93;51.00
59531;BME280;45349;48.692;8.186;2023-06-14T06:13:58;98265.94;;;17.00;53.14
59531;BME280;45349;48.692;8.186;2023-06-14T06:16:24;98262.72;;;17.18;52.39
59531;BME280;45349;48.692;8.186;2023-06-14T06:18:55;98262.72;;;17.31;51.59
59531;BME280;45349;48.692;8.186;2023-06-14T06:21:22;98263.94;;;17.35;53.87
59531;BME280;45349;48.692;8.186;2023-06-14T06:23:50;98263.75;;;17.44;52.20
59531;BME280;45349;48.692;8.186;2023-06-14T06:26:16;98265.34;;;17.51;51.82
59531;BME280;45349;48.692;8.186;2023-06-14T06:28:43;98271.00;;;17.68;50.87
59531;BME280;45349;48.692;8.186;2023-06-14T06:31:09;98275.88;;;17.71;50.44
59531;BME280;45349;48.692;8.186;2023-06-14T06:33:36;98276.25;;;17.89;47.90
59531;BME280;45349;48.692;8.186;2023-06-14T06:36:05;98271.78;;;17.96;48.02
59531;BME280;45349;48.692;8.186;2023-06-14T06:38:31;98272.19;;;17.99;46.83
59531;BME280;45349;48.692;8.186;2023-06-14T06:40:59;98272.34;;;18.18;49.67
59531;BME280;45349;48.692;8.186;2023-06-14T06:43:26;98275.31;;;18.35;48.12
59531;BME280;45349;48.692;8.186;2023-06-14T06:45:53;98283.13;;;18.55;47.04
59531;BME280;45349;48.692;8.186;2023-06-14T06:48:20;98292.47;;;18.58;47.87
59531;BME280;45349;48.692;8.186;2023-06-14T06:50:47;98292.44;;;18.65;46.11
59531;BME280;45349;48.692;8.186;2023-06-14T06:53:13;98292.25;;;18.66;46.26
59531;BME280;45349;48.692;8.186;2023-06-14T06:55:40;98294.75;;;18.86;44.27
59531;BME280;45349;48.692;8.186;2023-06-14T06:58:08;98297.56;;;18.92;46.10
59531;BME280;45349;48.692;8.186;2023-06-14T07:00:35;98298.72;;;19.09;46.66
59531;BME280;45349;48.692;8.186;2023-06-14T07:03:01;98297.19;;;19.20;44.21
59531;BME280;45349;48.692;8.186;2023-06-14T07:05:29;98299.91;;;19.39;44.68
59531;BME280;45349;48.692;8.186;2023-06-14T07:07:56;98298.78;;;19.53;45.21
59531;BME280;45349;48.692;8.186;2023-06-14T07:10:22;98305.94;;;19.71;45.05
59531;BME280;45349;48.692;8.186;2023-06-14T07:12:49;98305.06;;;19.77;44.46
59531;BME280;45349;48.692;8.186;2023-06-14T07:15:17;98311.81;;;19.73;43.66
59531;BME280;45349;48.692;8.186;2023-06-14T07:17:44;98311.19;;;19.78;44.86
59531;BME280;45349;48.692;8.186;2023-06-14T07:20:11;98312.25;;;19.96;44.03
59531;BME280;45349;48.692;8.186;2023-06-14T07:22:39;98315.66;;;19.77;44.69
59531;BME280;45349;48.692;8.186;2023-06-14T07:25:08;98315.66;;;20.03;44.19
59531;BME280;45349;48.692;8.186;2023-06-14T07:27:35;98319.03;;;20.29;45.31
59531;BME280;45349;48.692;8.186;2023-06-14T07:30:02;98311.75;;;20.43;43.66
59531;BME280;45349;48.692;8.186;2023-06-14T07:32:30;98310.47;;;20.45;43.79
59531;BME280;45349;48.692;8.186;2023-06-14T07:34:57;98315.78;;;20.45;43.79
59531;BME280;45349;48.692;8.186;2023-06-14T07:37:24;98308.56;;;20.53;46.74
59531;BME280;45349;48.692;8.186;2023-06-14T07:39:50;98307.94;;;20.69;46.38
59531;BME280;45349;48.692;8.186;2023-06-14T07:42:17;98307.81;;;20.94;44.21
59531;BME280;45349;48.692;8.186;2023-06-14T07:44:43;98308.25;;;20.91;43.28
59531;BME280;45349;48.692;8.186;2023-06-14T07:47:10;98296.91;;;21.15;44.46
59531;BME280;45349;48.692;8.186;2023-06-14T07:49:38;98305.81;;;21.32;44.54
59531;BME280;45349;48.692;8.186;2023-06-14T07:52:05;98306.63;;;21.45;43.60
59531;BME280;45349;48.692;8.186;2023-06-14T07:54:32;98314.53;;;21.63;42.52
59531;BME280;45349;48.692;8.186;2023-06-14T07:56:59;98316.38;;;21.63;35.63
59531;BME280;45349;48.692;8.186;2023-06-14T07:59:26;98313.38;;;21.83;35.26
59531;BME280;45349;48.692;8.186;2023-06-14T08:01:52;98316.00;;;21.95;35.03
59531;BME280;45349;48.692;8.186;2023-06-14T08:04:19;98318.09;;;21.93;35.69
59531;BME280;45349;48.692;8.186;2023-06-14T08:06:50;98308.63;;;22.09;35.74
59531;BME280;45349;48.692;8.186;2023-06-14T08:09:16;98319.94;;;21.92;35.91
59531;BME280;45349;48.692;8.186;2023-06-14T08:11:43;98320.16;;;22.15;35.70
59531;BME280;45349;48.692;8.186;2023-06-14T08:14:09;98319.09;;;22.16;36.73
59531;BME280;45349;48.692;8.186;2023-06-14T08:16:36;98328.88;;;22.39;36.90
59531;BME280;45349;48.692;8.186;2023-06-14T08:19:02;98322.75;;;22.50;36.88
59531;BME280;45349;48.692;8.186;2023-06-14T08:21:29;98325.28;;;22.45;36.05
59531;BME280;45349;48.692;8.186;2023-06-14T08:24:00;98325.53;;;22.44;35.84
59531;BME280;45349;48.692;8.186;2023-06-14T08:26:26;98326.91;;;22.58;35.46
59531;BME280;45349;48.692;8.186;2023-06-14T08:28:56;98323.84;;;22.66;35.08
59531;BME280;45349;48.692;8.186;2023-06-14T08:31:22;98327.28;;;22.79;35.71
59531;BME280;45349;48.692;8.186;2023-06-14T08:33:55;98329.59;;;22.75;36.66
59531;BME280;45349;48.692;8.186;2023-06-14T08:36:22;98334.44;;;22.78;35.41
59531;BME280;45349;48.692;8.186;2023-06-14T08:38:56;98331.22;;;22.76;36.67
59531;BME280;45349;48.692;8.186;2023-06-14T08:41:23;98332.34;;;22.80;36.08
59531;BME280;45349;48.692;8.186;2023-06-14T08:43:56;98336.06;;;22.79;36.96
59531;BME280;45349;48.692;8.186;2023-06-14T08:46:25;98333.88;;;22.76;36.71
59531;BME280;45349;48.692;8.186;2023-06-14T08:48:56;98328.44;;;22.71;37.18
59531;BME280;45349;48.692;8.186;2023-06-14T08:51:25;98333.56;;;22.61;37.01
59531;BME280;45349;48.692;8.186;2023-06-14T08:53:56;98332.50;;;22.74;37.65
59531;BME280;45349;48.692;8.186;2023-06-14T08:56:25;98332.81;;;22.77;37.37
59531;BME280;45349;48.692;8.186;2023-06-14T08:58:56;98340.66;;;22.55;37.95
59531;BME280;45349;48.692;8.186;2023-06-14T09:01:26;98339.75;;;22.49;37.71
59531;BME280;45349;48.692;8.186;2023-06-14T09:03:56;98338.22;;;22.53;38.38
59531;BME280;45349;48.692;8.186;2023-06-14T09:06:23;98336.34;;;22.66;37.99
59531;BME280;45349;48.692;8.186;2023-06-14T09:08:55;98335.97;;;22.74;37.83
59531;BME280;45349;48.692;8.186;2023-06-14T09:11:23;98344.94;;;22.85;37.32
59531;BME280;45349;48.692;8.186;2023-06-14T09:13:57;98337.94;;;22.96;37.28
59531;BME280;45349;48.692;8.186;2023-06-14T09:16:25;98333.69;;;22.95;35.00
59531;BME280;45349;48.692;8.186;2023-06-14T09:18:56;98333.50;;;23.02;35.21
59531;BME280;45349;48.692;8.186;2023-06-14T09:21:22;98342.47;;;23.24;35.63
59531;BME280;45349;48.692;8.186;2023-06-14T09:24:14;98333.50;;;23.02;34.70
59531;BME280;45349;48.692;8.186;2023-06-14T09:26:41;98347.00;;;23.24;35.24
59531;BME280;45349;48.692;8.186;2023-06-14T09:29:09;98351.97;;;23.37;31.54
59531;BME280;45349;48.692;8.186;2023-06-14T09:31:36;98341.31;;;23.37;33.08
59531;BME280;45349;48.692;8.186;2023-06-14T09:34:03;98348.69;;;23.47;33.65
59531;BME280;45349;48.692;8.186;2023-06-14T09:36:32;98349.63;;;23.58;33.17
59531;BME280;45349;48.692;8.186;2023-06-14T09:39:02;98354.00;;;23.64;31.64
59531;BME280;45349;48.692;8.186;2023-06-14T09:41:31;98354.41;;;23.39;30.29
59531;BME280;45349;48.692;8.186;2023-06-14T09:43:59;98362.31;;;23.68;32.38
59531;BME280;45349;48.692;8.186;2023-06-14T09:46:29;98360.38;;;23.63;32.15
59531;BME280;45349;48.692;8.186;2023-06-14T09:48:57;98371.94;;;23.69;33.02
59531;BME280;45349;48.692;8.186;2023-06-14T09:51:25;98358.03;;;23.84;32.91
59531;BME280;45349;48.692;8.186;2023-06-14T09:53:58;98361.91;;;23.76;31.33
59531;BME280;45349;48.692;8.186;2023-06-14T09:56:27;98364.88;;;23.80;32.54
59531;BME280;45349;48.692;8.186;2023-06-14T09:58:58;98366.69;;;23.74;32.27
59531;BME280;45349;48.692;8.186;2023-06-14T10:01:25;98361.19;;;23.81;31.38
59531;BME280;45349;48.692;8.186;2023-06-14T10:04:02;98355.22;;;23.73;30.26
59531;BME280;45349;48.692;8.186;2023-06-14T10:06:30;98358.84;;;23.67;30.58
59531;BME280;45349;48.692;8.186;2023-06-14T10:08:58;98362.56;;;23.66;30.60
59531;BME280;45349;48.692;8.186;2023-06-14T10:11:26;98357.00;;;23.68;30.47
59531;BME280;45349;48.692;8.186;2023-06-14T10:13:57;98357.72;;;23.63;30.24
59531;BME280;45349;48.692;8.186;2023-06-14T10:16:28;98353.03;;;23.53;30.60
59531;BME280;45349;48.692;8.186;2023-06-14T10:19:05;98357.38;;;23.77;31.19
59531;BME280;45349;48.692;8.186;2023-06-14T10:21:43;98357.53;;;23.87;31.37
59531;BME280;45349;48.692;8.186;2023-06-14T10:24:15;98354.78;;;23.82;31.90
59531;BME280;45349;48.692;8.186;2023-06-14T10:26:50;98360.06;;;23.77;32.61
59531;BME280;45349;48.692;8.186;2023-06-14T10:29:18;98348.59;;;23.59;32.74
59531;BME280;45349;48.692;8.186;2023-06-14T10:31:46;98359.03;;;23.61;32.61
59531;BME280;45349;48.692;8.186;2023-06-14T10:34:21;98359.94;;;23.88;31.30
59531;BME280;45349;48.692;8.186;2023-06-14T10:37:05;98358.72;;;23.96;31.12
59531;BME280;45349;48.692;8.186;2023-06-14T10:39:37;98363.16;;;23.91;30.03
59531;BME280;45349;48.692;8.186;2023-06-14T10:42:05;98363.91;;;24.03;30.20
59531;BME280;45349;48.692;8.186;2023-06-14T10:44:43;98357.38;;;24.11;29.87
59531;BME280;45349;48.692;8.186;2023-06-14T10:47:20;98352.34;;;23.97;30.88
59531;BME280;45349;48.692;8.186;2023-06-14T10:49:50;98368.19;;;24.04;30.83
59531;BME280;45349;48.692;8.186;2023-06-14T10:52:21;98358.00;;;24.01;31.82
59531;BME280;45349;48.692;8.186;2023-06-14T10:55:05;98364.25;;;24.07;29.42
59531;BME280;45349;48.692;8.186;2023-06-14T10:57:35;98364.69;;;24.21;29.72
59531;BME280;45349;48.692;8.186;2023-06-14T11:00:03;98353.44;;;23.79;31.33
59531;BME280;45349;48.692;8.186;2023-06-14T11:03:14;98359.22;;;24.10;32.16
59531;BME280;45349;48.692;8.186;2023-06-14T11:05:51;98354.78;;;23.99;31.67
59531;BME280;45349;48.692;8.186;2023-06-14T11:08:40;98353.81;;;24.05;32.04
59531;BME280;45349;48.692;8.186;2023-06-14T11:11:13;98356.25;;;24.07;30.65
59531;BME280;45349;48.692;8.186;2023-06-14T11:13:43;98368.78;;;24.28;30.78
59531;BME280;45349;48.692;8.186;2023-06-14T11:16:11;98369.25;;;24.03;30.48
59531;BME280;45349;48.692;8.186;2023-06-14T11:18:38;98367.97;;;24.06;31.39
59531;BME280;45349;48.692;8.186;2023-06-14T11:21:06;98360.78;;;24.28;31.63
59531;BME280;45349;48.692;8.186;2023-06-14T11:23:34;98350.56;;;24.42;31.26
59531;BME280;45349;48.692;8.186;2023-06-14T11:26:01;98350.63;;;24.25;31.15
59531;BME280;45349;48.692;8.186;2023-06-14T11:28:36;98366.06;;;24.23;30.22
59531;BME280;45349;48.692;8.186;2023-06-14T11:31:03;98363.59;;;23.99;31.62
59531;BME280;45349;48.692;8.186;2023-06-14T11:33:30;98359.97;;;24.28;30.90
59531;BME280;45349;48.692;8.186;2023-06-14T11:35:57;98355.53;;;24.34;30.40
59531;BME280;45349;48.692;8.186;2023-06-14T11:38:26;98353.34;;;24.53;30.51
59531;BME280;45349;48.692;8.186;2023-06-14T11:40:52;98354.56;;;24.45;30.33
59531;BME280;45349;48.692;8.186;2023-06-14T11:43:19;98345.56;;;24.51;31.11
59531;BME280;45349;48.692;8.186;2023-06-14T11:45:47;98355.63;;;24.66;29.23
59531;BME280;45349;48.692;8.186;2023-06-14T11:48:14;98354.00;;;24.43;30.17
59531;BME280;45349;48.692;8.186;2023-06-14T11:50:41;98341.13;;;24.57;30.23
59531;BME280;45349;48.692;8.186;2023-06-14T11:53:08;98341.41;;;24.60;30.07
59531;BME280;45349;48.692;8.186;2023-06-14T11:55:37;98350.34;;;24.94;29.55
59531;BME280;45349;48.692;8.186;2023-06-14T11:58:04;98351.31;;;25.15;30.26
59531;BME280;45349;48.692;8.186;2023-06-14T12:00:31;98345.81;;;24.72;29.52
59531;BME280;45349;48.692;8.186;2023-06-14T12:02:58;98349.13;;;24.79;29.01
59531;BME280;45349;48.692;8.186;2023-06-14T12:05:25;98337.19;;;24.65;29.28
59531;BME280;45349;48.692;8.186;2023-06-14T12:07:58;98347.06;;;24.64;29.62
59531;BME280;45349;48.692;8.186;2023-06-14T12:10:25;98338.00;;;24.65;29.44
59531;BME280;45349;48.692;8.186;2023-06-14T12:12:56;98348.84;;;24.58;29.22
59531;BME280;45349;48.692;8.186;2023-06-14T12:15:23;98348.84;;;24.58;29.94
59531;BME280;45349;48.692;8.186;2023-06-14T12:17:50;98345.34;;;24.53;29.61
59531;BME280;45349;48.692;8.186;2023-06-14T12:20:18;98349.25;;;24.45;29.82
59531;BME280;45349;48.692;8.186;2023-06-14T12:22:50;98343.22;;;24.77;29.42
59531;BME280;45349;48.692;8.186;2023-06-14T12:25:23;98340.16;;;24.90;29.98
59531;BME280;45349;48.692;8.186;2023-06-14T12:27:53;98348.22;;;24.96;29.46
59531;BME280;45349;48.692;8.186;2023-06-14T12:30:20;98353.94;;;24.82;29.76
59531;BME280;45349;48.692;8.186;2023-06-14T12:32:47;98344.88;;;24.83;29.00
59531;BME280;45349;48.692;8.186;2023-06-14T12:35:14;98343.78;;;25.06;28.98
59531;BME280;45349;48.692;8.186;2023-06-14T12:37:40;98337.41;;;25.13;29.03
59531;BME280;45349;48.692;8.186;2023-06-14T12:40:08;98349.22;;;24.89;29.49
59531;BME280;45349;48.692;8.186;2023-06-14T12:42:36;98343.97;;;25.27;28.53
59531;BME280;45349;48.692;8.186;2023-06-14T12:45:05;98346.44;;;25.06;28.58
59531;BME280;45349;48.692;8.186;2023-06-14T12:47:32;98338.66;;;25.00;28.82
59531;BME280;45349;48.692;8.186;2023-06-14T12:49:59;98346.72;;;25.05;29.67
59531;BME280;45349;48.692;8.186;2023-06-14T12:52:26;98352.44;;;24.91;28.58
59531;BME280;45349;48.692;8.186;2023-06-14T12:54:53;98358.44;;;25.04;28.48
59531;BME280;45349;48.692;8.186;2023-06-14T12:57:19;98354.56;;;24.67;29.02
59531;BME280;45349;48.692;8.186;2023-06-14T12:59:46;98355.41;;;24.95;28.39
59531;BME280;45349;48.692;8.186;2023-06-14T13:02:16;98347.72;;;25.31;28.04
59531;BME280;45349;48.692;8.186;2023-06-14T13:04:43;98346.28;;;25.18;27.36
59531;BME280;45349;48.692;8.186;2023-06-14T13:07:10;98357.38;;;25.05;28.11
59531;BME280;45349;48.692;8.186;2023-06-14T13:09:37;98348.91;;;25.13;29.04